CPX460 Details

Departure: Newark Liberty International Airport (KEWR)
Arrival: Minneapolis-St Paul International Airport (KMSP)
Route: COATE Q436 RAAKK Q440 SLLAP IDIOM MUSCL3


Current Weather Information
KEWR 230851Z 27005KT 10SM FEW070 14/13 A2980 RMK AO2 SLP090 T01440133 53010 $
KMSP 230853Z 24005KT 10SM CLR 03/M01 A2975 RMK AO2 SLP080 T00281006 53015